Wilson Lista — 8PRW — position and weather

sailwx.info

Track history (hours):
 
Tides and Currents Weather Stations Pressure Air Temp Water Temp Dewpoint Dewpoint Depression Visibility Wind Speed Wind Dir Waves Ship Positions

Wilson Lista

Last reported at 2016-Jun-29 08:21 UTC. Time now 2016-Jun-30 08:50 UTC.
Position N 51°34' W 002°58'.

Length 88 m; draft 4 m.

Type: Cargo ship. MMSI: 314188000.

Date/timePositionNaut miles runAvg speedWind from/ knotsBaromVisibWave heightAir tempDewpointWater temp
2016-Jun-29 08:21N 51°34' W 002°58'0 0.0
2016-Jun-29 01:30N 51°34' W 002°58'2 1.6
2016-Jun-29 00:27N 51°32' W 002°59'108 3.6
2016-Jun-27 18:20N 52°09' W 005°43'103 8.5
2016-Jun-27 06:13N 53°33' W 004°05'710.9
2016-Jun-27 05:33N 53°33' W 003°53'1110.5
2016-Jun-27 04:34N 53°33' W 003°36'10 9.9
2016-Jun-27 03:33N 53°32' W 003°19'7 7.1
2016-Jun-27 02:33N 53°31' W 003°07'7 7.2
2016-Jun-27 01:33N 53°25' W 003°00'6 6.1
2016-Jun-27 00:33N 53°19' W 002°57'3 2.8
2016-Jun-26 23:33N 53°17' W 002°53'5 5.1
2016-Jun-26 22:33N 53°19' W 002°45'1 1.0
2016-Jun-26 21:32N 53°20' W 002°45'0 0.0
2016-Jun-26 20:31N 53°20' W 002°45'0 0.0
2016-Jun-26 19:31N 53°20' W 002°45'0 0.0
2016-Jun-26 18:33N 53°20' W 002°45'0 0.0
2016-Jun-26 17:33N 53°20' W 002°45'0 0.0
2016-Jun-26 16:29N 53°20' W 002°45'0 0.0
2016-Jun-26 15:32N 53°20' W 002°45'0 0.0
2016-Jun-26 14:29N 53°20' W 002°45'0 0.0
2016-Jun-26 13:31N 53°20' W 002°45'0 0.0
2016-Jun-26 12:31N 53°20' W 002°45'0 0.0
2016-Jun-26 11:33N 53°20' W 002°45'0 0.0
2016-Jun-26 10:30N 53°20' W 002°45'0 0.0
2016-Jun-26 09:32N 53°20' W 002°45'0 0.0
2016-Jun-26 08:32N 53°20' W 002°45'0 0.0
2016-Jun-26 07:28N 53°20' W 002°45'0 0.0
2016-Jun-26 06:31N 53°20' W 002°45'0 0.0
2016-Jun-26 05:31N 53°20' W 002°45'0 0.0
2016-Jun-26 04:33N 53°20' W 002°45'0 0.0
2016-Jun-26 03:33N 53°20' W 002°45'0 0.0
2016-Jun-26 02:32N 53°20' W 002°45'0 0.0
2016-Jun-26 01:32N 53°20' W 002°45'0 0.1
2016-Jun-26 00:31N 53°20' W 002°45'0 0.0
2016-Jun-25 23:31N 53°20' W 002°45'0 0.0
2016-Jun-25 22:28N 53°20' W 002°45'0 0.0
2016-Jun-25 21:33N 53°20' W 002°45'0 0.0
2016-Jun-25 20:30N 53°20' W 002°45'0 0.0
2016-Jun-25 19:32N 53°20' W 002°45'0 0.0
2016-Jun-25 18:29N 53°20' W 002°45'0 0.0
2016-Jun-25 17:22N 53°20' W 002°45'0 0.0
2016-Jun-25 16:24N 53°20' W 002°45'0 0.0
2016-Jun-25 15:33N 53°20' W 002°45'0 0.0
2016-Jun-25 14:31N 53°20' W 002°45'0 0.0
2016-Jun-25 13:28N 53°20' W 002°45'0 0.0
2016-Jun-25 12:32N 53°20' W 002°45'0 0.0
2016-Jun-25 11:29N 53°20' W 002°45'0 0.0
2016-Jun-25 10:22N 53°20' W 002°45'0 0.0
2016-Jun-25 09:31N 53°20' W 002°45'0 0.0
2016-Jun-25 08:27N 53°20' W 002°45'0 0.0
2016-Jun-25 07:27N 53°20' W 002°45'0 0.0
2016-Jun-25 06:32N 53°20' W 002°45'0 0.1
2016-Jun-25 05:33N 53°20' W 002°45'4 4.1
2016-Jun-25 04:33N 53°17' W 002°50'5 4.7
2016-Jun-25 03:33N 53°19' W 002°57'1 0.8
2016-Jun-25 02:33N 53°20' W 002°57'5 4.8
2016-Jun-25 01:33N 53°24' W 003°01'10 9.6
2016-Jun-25 00:33N 53°31' W 003°12'8 7.7
2016-Jun-24 23:33N 53°30' W 003°24'3 2.9
2016-Jun-24 22:32N 53°27' W 003°24'0 0.0
2016-Jun-24 21:26N 53°27' W 003°24'0 0.0
2016-Jun-24 20:31N 53°27' W 003°24'0 0.1
2016-Jun-24 19:31N 53°27' W 003°24'0 0.0
2016-Jun-24 18:33N 53°27' W 003°24'0 0.0
2016-Jun-24 17:27N 53°27' W 003°24'0 0.0
2016-Jun-24 16:33N 53°27' W 003°24'0 0.0
2016-Jun-24 15:32N 53°27' W 003°24'0 0.1
2016-Jun-24 14:29N 53°27' W 003°24'0 0.1
2016-Jun-24 13:31N 53°27' W 003°24'0 0.0
2016-Jun-24 12:31N 53°27' W 003°24'0 0.0
2016-Jun-24 11:31N 53°27' W 003°24'0 0.0
2016-Jun-24 10:24N 53°27' W 003°24'0 0.0
2016-Jun-24 09:30N 53°27' W 003°24'0 0.0
2016-Jun-24 08:32N 53°27' W 003°24'0 0.0
2016-Jun-24 07:32N 53°27' W 003°24'0 0.1
2016-Jun-24 06:29N 53°27' W 003°24'0 0.0
2016-Jun-24 04:31N 53°27' W 003°24'0 0.0
2016-Jun-24 03:33N 53°27' W 003°24'0 0.0
2016-Jun-24 02:24N 53°27' W 003°24'0 0.1
2016-Jun-24 01:33N 53°27' W 003°24'0 0.0
2016-Jun-24 00:23N 53°27' W 003°24'0 0.0
2016-Jun-23 23:29N 53°27' W 003°24'0 0.0
2016-Jun-23 22:31N 53°27' W 003°24'0 0.0
2016-Jun-23 21:31N 53°27' W 003°24'0 0.0
2016-Jun-23 20:33N 53°27' W 003°24'0 0.1
2016-Jun-23 19:33N 53°28' W 003°24'0 0.1
2016-Jun-23 18:33N 53°27' W 003°24'0 0.0
2016-Jun-23 17:32N 53°27' W 003°24'0 0.0
2016-Jun-23 16:32N 53°28' W 003°24'0 0.0
2016-Jun-23 15:25N 53°28' W 003°24'0 0.0
2016-Jun-23 14:31N 53°27' W 003°24'0 0.0
2016-Jun-23 13:33N 53°27' W 003°24'0 0.1
2016-Jun-23 12:33N 53°27' W 003°24'0 0.0
2016-Jun-23 11:33N 53°27' W 003°24'8 7.8
2016-Jun-23 10:33N 53°31' W 003°35'1110.8
2016-Jun-23 09:33N 53°35' W 003°52'54 9.1
2016-Jun-23 03:33N 54°12' W 005°00'9 9.1
2016-Jun-23 02:33N 54°20' W 005°07'9 8.7
2016-Jun-23 01:33N 54°28' W 005°13'9 9.1
2016-Jun-23 00:33N 54°36' W 005°20'1110.7
2016-Jun-22 23:33N 54°46' W 005°28'1111.3
2016-Jun-22 22:33N 54°56' W 005°36'2512.4
2016-Jun-22 20:33N 55°17' W 006°01'1110.7
2016-Jun-22 19:33N 55°23' W 006°16'1010.0
2016-Jun-22 18:33N 55°25' W 006°33'8 7.9
2016-Jun-22 17:33N 55°31' W 006°43'14 6.9
2016-Jun-22 15:33N 55°43' W 006°53'  
Track history (hours):
 
Tides and Currents Weather Stations Pressure Air Temp Water Temp Dewpoint Dewpoint Depression Visibility Wind Speed Wind Dir Waves Ship Positions

Wilson Lista

Last reported at 2016-Jun-29 08:21 UTC. Time now 2016-Jun-30 08:50 UTC.
Position N 51°34' W 002°58'.

Length 88 m; draft 4 m.

Type: Cargo ship. MMSI: 314188000.

Date/timePositionNaut miles runAvg speedWind from/ knotsBaromVisibWave heightAir tempDewpointWater temp
2016-Jun-29 08:21N 51°34' W 002°58'0 0.0
2016-Jun-29 01:30N 51°34' W 002°58'2 1.6
2016-Jun-29 00:27N 51°32' W 002°59'108 3.6
2016-Jun-27 18:20N 52°09' W 005°43'103 8.5
2016-Jun-27 06:13N 53°33' W 004°05'710.9
2016-Jun-27 05:33N 53°33' W 003°53'1110.5
2016-Jun-27 04:34N 53°33' W 003°36'10 9.9
2016-Jun-27 03:33N 53°32' W 003°19'7 7.1
2016-Jun-27 02:33N 53°31' W 003°07'7 7.2
2016-Jun-27 01:33N 53°25' W 003°00'6 6.1
2016-Jun-27 00:33N 53°19' W 002°57'3 2.8
2016-Jun-26 23:33N 53°17' W 002°53'5 5.1
2016-Jun-26 22:33N 53°19' W 002°45'1 1.0
2016-Jun-26 21:32N 53°20' W 002°45'0 0.0
2016-Jun-26 20:31N 53°20' W 002°45'0 0.0
2016-Jun-26 19:31N 53°20' W 002°45'0 0.0
2016-Jun-26 18:33N 53°20' W 002°45'0 0.0
2016-Jun-26 17:33N 53°20' W 002°45'0 0.0
2016-Jun-26 16:29N 53°20' W 002°45'0 0.0
2016-Jun-26 15:32N 53°20' W 002°45'0 0.0
2016-Jun-26 14:29N 53°20' W 002°45'0 0.0
2016-Jun-26 13:31N 53°20' W 002°45'0 0.0
2016-Jun-26 12:31N 53°20' W 002°45'0 0.0
2016-Jun-26 11:33N 53°20' W 002°45'0 0.0
2016-Jun-26 10:30N 53°20' W 002°45'0 0.0
2016-Jun-26 09:32N 53°20' W 002°45'0 0.0
2016-Jun-26 08:32N 53°20' W 002°45'0 0.0
2016-Jun-26 07:28N 53°20' W 002°45'0 0.0
2016-Jun-26 06:31N 53°20' W 002°45'0 0.0
2016-Jun-26 05:31N 53°20' W 002°45'0 0.0
2016-Jun-26 04:33N 53°20' W 002°45'0 0.0
2016-Jun-26 03:33N 53°20' W 002°45'0 0.0
2016-Jun-26 02:32N 53°20' W 002°45'0 0.0
2016-Jun-26 01:32N 53°20' W 002°45'0 0.1
2016-Jun-26 00:31N 53°20' W 002°45'0 0.0
2016-Jun-25 23:31N 53°20' W 002°45'0 0.0
2016-Jun-25 22:28N 53°20' W 002°45'0 0.0
2016-Jun-25 21:33N 53°20' W 002°45'0 0.0
2016-Jun-25 20:30N 53°20' W 002°45'0 0.0
2016-Jun-25 19:32N 53°20' W 002°45'0 0.0
2016-Jun-25 18:29N 53°20' W 002°45'0 0.0
2016-Jun-25 17:22N 53°20' W 002°45'0 0.0
2016-Jun-25 16:24N 53°20' W 002°45'0 0.0
2016-Jun-25 15:33N 53°20' W 002°45'0 0.0
2016-Jun-25 14:31N 53°20' W 002°45'0 0.0
2016-Jun-25 13:28N 53°20' W 002°45'0 0.0
2016-Jun-25 12:32N 53°20' W 002°45'0 0.0
2016-Jun-25 11:29N 53°20' W 002°45'0 0.0
2016-Jun-25 10:22N 53°20' W 002°45'0 0.0
2016-Jun-25 09:31N 53°20' W 002°45'0 0.0
2016-Jun-25 08:27N 53°20' W 002°45'0 0.0
2016-Jun-25 07:27N 53°20' W 002°45'0 0.0
2016-Jun-25 06:32N 53°20' W 002°45'0 0.1
2016-Jun-25 05:33N 53°20' W 002°45'4 4.1
2016-Jun-25 04:33N 53°17' W 002°50'5 4.7
2016-Jun-25 03:33N 53°19' W 002°57'1 0.8
2016-Jun-25 02:33N 53°20' W 002°57'5 4.8
2016-Jun-25 01:33N 53°24' W 003°01'10 9.6
2016-Jun-25 00:33N 53°31' W 003°12'8 7.7
2016-Jun-24 23:33N 53°30' W 003°24'3 2.9
2016-Jun-24 22:32N 53°27' W 003°24'0 0.0
2016-Jun-24 21:26N 53°27' W 003°24'0 0.0
2016-Jun-24 20:31N 53°27' W 003°24'0 0.1
2016-Jun-24 19:31N 53°27' W 003°24'0 0.0
2016-Jun-24 18:33N 53°27' W 003°24'0 0.0
2016-Jun-24 17:27N 53°27' W 003°24'0 0.0
2016-Jun-24 16:33N 53°27' W 003°24'0 0.0
2016-Jun-24 15:32N 53°27' W 003°24'0 0.1
2016-Jun-24 14:29N 53°27' W 003°24'0 0.1
2016-Jun-24 13:31N 53°27' W 003°24'0 0.0
2016-Jun-24 12:31N 53°27' W 003°24'0 0.0
2016-Jun-24 11:31N 53°27' W 003°24'0 0.0
2016-Jun-24 10:24N 53°27' W 003°24'0 0.0
2016-Jun-24 09:30N 53°27' W 003°24'0 0.0
2016-Jun-24 08:32N 53°27' W 003°24'0 0.0
2016-Jun-24 07:32N 53°27' W 003°24'0 0.1
2016-Jun-24 06:29N 53°27' W 003°24'0 0.0
2016-Jun-24 04:31N 53°27' W 003°24'0 0.0
2016-Jun-24 03:33N 53°27' W 003°24'0 0.0
2016-Jun-24 02:24N 53°27' W 003°24'0 0.1
2016-Jun-24 01:33N 53°27' W 003°24'0 0.0
2016-Jun-24 00:23N 53°27' W 003°24'0 0.0
2016-Jun-23 23:29N 53°27' W 003°24'0 0.0
2016-Jun-23 22:31N 53°27' W 003°24'0 0.0
2016-Jun-23 21:31N 53°27' W 003°24'0 0.0
2016-Jun-23 20:33N 53°27' W 003°24'0 0.1
2016-Jun-23 19:33N 53°28' W 003°24'0 0.1
2016-Jun-23 18:33N 53°27' W 003°24'0 0.0
2016-Jun-23 17:32N 53°27' W 003°24'0 0.0
2016-Jun-23 16:32N 53°28' W 003°24'0 0.0
2016-Jun-23 15:25N 53°28' W 003°24'0 0.0
2016-Jun-23 14:31N 53°27' W 003°24'0 0.0
2016-Jun-23 13:33N 53°27' W 003°24'0 0.1
2016-Jun-23 12:33N 53°27' W 003°24'0 0.0
2016-Jun-23 11:33N 53°27' W 003°24'8 7.8
2016-Jun-23 10:33N 53°31' W 003°35'1110.8
2016-Jun-23 09:33N 53°35' W 003°52'54 9.1
2016-Jun-23 03:33N 54°12' W 005°00'9 9.1
2016-Jun-23 02:33N 54°20' W 005°07'9 8.7
2016-Jun-23 01:33N 54°28' W 005°13'9 9.1
2016-Jun-23 00:33N 54°36' W 005°20'1110.7
2016-Jun-22 23:33N 54°46' W 005°28'1111.3
2016-Jun-22 22:33N 54°56' W 005°36'2512.4
2016-Jun-22 20:33N 55°17' W 006°01'1110.7
2016-Jun-22 19:33N 55°23' W 006°16'1010.0
2016-Jun-22 18:33N 55°25' W 006°33'8 7.9
2016-Jun-22 17:33N 55°31' W 006°43'14 6.9
2016-Jun-22 15:33N 55°43' W 006°53'  

Dump ship's entire track history